Time;durP1;ratioP1;P1;durP2;ratioP2;P2;SDS_P1;SDS_P2;PMS_P1;PMS_P2;Temp;Humidity;BMP_temperature;BMP_pressure;BME280_temperature;BME280_humidity;BME280_pressure;Samples;Min_cycle;Max_cycle;Signal;HPM_P1;HPM_P2
2021/08/08 00:00:07;;;;;;;14.15;13.18;;;12.80;99.90;;;;;;4977504;28;20507;-72
2021/08/08 00:02:37;;;;;;;14.93;13.70;;;13.00;99.90;;;;;;4977361;28;20034;-72
2021/08/08 00:05:10;;;;;;;14.70;13.77;;;13.10;99.90;;;;;;4977197;28;20503;-72
2021/08/08 00:07:37;;;;;;;14.65;13.55;;;13.20;99.90;;;;;;4977222;28;20038;-71
2021/08/08 00:10:08;;;;;;;14.68;13.75;;;13.30;99.90;;;;;;4977204;28;20050;-72
2021/08/08 00:12:36;;;;;;;15.18;14.18;;;13.30;99.90;;;;;;4976995;28;20062;-72
2021/08/08 00:15:05;;;;;;;14.98;13.65;;;13.50;99.90;;;;;;4977087;28;20474;-73
2021/08/08 00:17:33;;;;;;;15.80;14.65;;;13.60;99.90;;;;;;4977063;28;20034;-73
2021/08/08 00:20:00;;;;;;;14.93;13.70;;;13.60;99.90;;;;;;4977099;28;20022;-72
2021/08/08 00:22:28;;;;;;;14.05;13.13;;;13.70;99.90;;;;;;4977199;28;20110;-72
2021/08/08 00:24:55;;;;;;;13.73;12.63;;;13.60;99.90;;;;;;4975445;28;20491;-72
2021/08/08 00:27:22;;;;;;;14.98;13.80;;;13.70;99.90;;;;;;4976903;28;20058;-72
2021/08/08 00:29:50;;;;;;;13.50;12.35;;;13.70;99.90;;;;;;4976720;28;20399;-71
2021/08/08 00:32:17;;;;;;;15.00;13.70;;;13.80;99.90;;;;;;4977011;28;20103;-72
2021/08/08 00:34:44;;;;;;;12.10;11.05;;;13.90;99.90;;;;;;4976631;28;20019;-71
2021/08/08 00:37:12;;;;;;;13.50;12.20;;;13.90;99.90;;;;;;4976663;28;20022;-72
2021/08/08 00:39:39;;;;;;;13.70;12.60;;;14.00;99.90;;;;;;4975271;28;20041;-70
2021/08/08 00:42:06;;;;;;;13.02;11.10;;;14.20;99.90;;;;;;4976684;28;20395;-70
2021/08/08 00:44:34;;;;;;;12.05;10.85;;;14.30;99.90;;;;;;4976674;28;20110;-69
2021/08/08 00:47:01;;;;;;;11.23;10.20;;;14.40;99.90;;;;;;4975368;28;20127;-68
2021/08/08 00:49:28;;;;;;;12.52;11.43;;;14.40;99.90;;;;;;4976829;28;20029;-70
2021/08/08 00:51:59;;;;;;;12.50;11.30;;;14.50;99.90;;;;;;4977010;28;20031;-69
2021/08/08 00:54:26;;;;;;;12.98;11.77;;;14.60;99.90;;;;;;4976481;28;20030;-74
2021/08/08 00:56:53;;;;;;;13.90;12.65;;;14.70;99.90;;;;;;4976309;28;20056;-70
2021/08/08 00:59:21;;;;;;;13.75;11.00;;;14.80;99.90;;;;;;4976470;28;20559;-73
2021/08/08 01:01:50;;;;;;;11.52;10.48;;;14.80;99.90;;;;;;4974247;28;20065;-75
2021/08/08 01:04:30;;;;;;;16.40;14.68;;;14.60;99.90;;;;;;4976624;28;20546;-76
2021/08/08 01:07:08;;;;;;;16.38;12.57;;;14.60;99.90;;;;;;4975458;28;20488;-75
2021/08/08 01:09:39;;;;;;;12.68;11.40;;;14.40;99.90;;;;;;4975412;28;20029;-81
2021/08/08 01:12:08;;;;;;;15.55;10.98;;;14.40;99.90;;;;;;4974995;28;20126;-73
2021/08/08 01:14:37;;;;;;;15.25;10.65;;;14.40;99.90;;;;;;4974880;28;20479;-74
2021/08/08 01:17:04;;;;;;;16.30;11.23;;;14.30;99.90;;;;;;4976175;28;20081;-73
2021/08/08 01:19:47;;;;;;;15.82;11.85;;;14.40;99.90;;;;;;4974731;28;20042;-71
2021/08/08 01:22:14;;;;;;;15.55;11.32;;;14.30;99.90;;;;;;4974665;28;20068;-72
2021/08/08 01:24:45;;;;;;;13.85;10.80;;;14.20;99.90;;;;;;4976044;28;20077;-72
2021/08/08 01:27:14;;;;;;;15.23;10.88;;;14.20;99.90;;;;;;4976316;28;20490;-70
2021/08/08 01:29:41;;;;;;;13.27;11.13;;;14.10;99.90;;;;;;4975948;28;20170;-71
2021/08/08 01:32:09;;;;;;;15.50;12.45;;;14.20;99.90;;;;;;4975879;28;20023;-72
2021/08/08 01:34:36;;;;;;;19.13;11.82;;;14.30;99.90;;;;;;4975884;28;20416;-73
2021/08/08 01:37:04;;;;;;;12.32;10.82;;;14.40;99.90;;;;;;4975899;28;20118;-72
2021/08/08 01:39:34;;;;;;;16.75;11.90;;;14.40;99.90;;;;;;4974333;28;20054;-72
2021/08/08 01:42:08;;;;;;;17.50;11.13;;;14.60;99.90;;;;;;4975883;28;20026;-74
2021/08/08 01:44:40;;;;;;;17.65;11.60;;;14.60;99.90;;;;;;4974581;28;20031;-72
2021/08/08 01:47:10;;;;;;;22.58;12.05;;;14.40;99.90;;;;;;4974893;28;20023;-77
2021/08/08 01:49:38;;;;;;;15.45;11.07;;;14.60;99.90;;;;;;4975632;28;20030;-77
2021/08/08 01:52:08;;;;;;;15.00;10.50;;;14.50;99.90;;;;;;4975513;28;20030;-74
2021/08/08 01:54:41;;;;;;;14.88;10.68;;;14.50;99.90;;;;;;4975433;28;20026;-74
2021/08/08 01:57:10;;;;;;;16.98;12.25;;;14.60;99.90;;;;;;4975682;28;20023;-73
2021/08/08 01:59:38;;;;;;;14.20;11.48;;;14.90;99.90;;;;;;4975550;28;20022;-73
2021/08/08 02:02:13;;;;;;;19.02;11.13;;;15.00;99.90;;;;;;4975603;28;20054;-74
2021/08/08 02:04:41;;;;;;;17.25;10.23;;;15.10;99.90;;;;;;4975689;28;20026;-72
2021/08/08 02:07:11;;;;;;;18.90;10.65;;;15.10;99.90;;;;;;4975435;28;20018;-74
2021/08/08 02:09:38;;;;;;;17.13;10.70;;;15.20;99.90;;;;;;4973947;28;20023;-72
2021/08/08 02:12:07;;;;;;;17.40;10.68;;;14.90;99.90;;;;;;4973764;28;20102;-74
2021/08/08 02:14:35;;;;;;;15.65;11.00;;;14.90;99.90;;;;;;4975355;28;20023;-73
2021/08/08 02:17:03;;;;;;;17.38;10.63;;;15.10;99.90;;;;;;4973496;28;20031;-72
2021/08/08 02:19:32;;;;;;;14.45;9.90;;;14.90;99.90;;;;;;4973630;28;20439;-72
2021/08/08 02:22:00;;;;;;;15.45;11.23;;;15.00;99.90;;;;;;4973502;28;20078;-74
2021/08/08 02:24:29;;;;;;;14.35;10.07;;;15.10;99.90;;;;;;4974948;28;20042;-74
2021/08/08 02:26:58;;;;;;;15.20;10.77;;;15.20;99.90;;;;;;4975164;28;20365;-76
2021/08/08 02:29:25;;;;;;;14.63;11.82;;;15.30;99.90;;;;;;4974955;28;20435;-76
2021/08/08 02:31:53;;;;;;;20.65;13.88;;;15.40;99.90;;;;;;4973659;28;20487;-75
2021/08/08 02:34:20;;;;;;;16.95;12.10;;;15.60;99.90;;;;;;4975030;28;20034;-74
2021/08/08 02:36:48;;;;;;;19.58;11.65;;;15.70;99.90;;;;;;4974901;28;20027;-74
2021/08/08 02:39:15;;;;;;;15.95;9.93;;;15.90;99.90;;;;;;4974991;28;20085;-73
2021/08/08 02:41:42;;;;;;;17.35;12.57;;;15.90;99.90;;;;;;4974906;28;20030;-71
2021/08/08 02:44:09;;;;;;;15.90;10.65;;;15.90;99.90;;;;;;4973227;28;20030;-73
2021/08/08 02:46:37;;;;;;;17.83;13.52;;;15.80;99.90;;;;;;4973248;28;20059;-74
2021/08/08 02:49:04;;;;;;;18.70;10.63;;;15.80;99.90;;;;;;4973199;28;20122;-74
2021/08/08 02:51:32;;;;;;;14.02;10.30;;;15.70;99.90;;;;;;4974637;28;20077;-75
2021/08/08 02:53:59;;;;;;;16.63;9.95;;;15.70;99.90;;;;;;4974324;28;20125;-74
2021/08/08 02:56:26;;;;;;;16.95;10.57;;;15.60;99.90;;;;;;4974688;28;20482;-72
2021/08/08 02:58:54;;;;;;;25.67;13.80;;;15.60;99.90;;;;;;4974182;28;20030;-73
2021/08/08 03:01:21;;;;;;;20.35;12.73;;;15.50;99.90;;;;;;4974338;28;20460;-73
2021/08/08 03:03:48;;;;;;;19.65;9.95;;;15.50;99.90;;;;;;4974105;28;20022;-72
2021/08/08 03:06:18;;;;;;;15.48;9.88;;;15.40;99.90;;;;;;4974041;28;20026;-72
2021/08/08 03:08:47;;;;;;;17.83;10.10;;;15.30;99.90;;;;;;4974076;28;20015;-72
2021/08/08 03:11:14;;;;;;;21.38;12.32;;;15.20;99.90;;;;;;4973840;28;20027;-72
2021/08/08 03:13:42;;;;;;;20.52;10.82;;;15.30;99.90;;;;;;4974238;28;20050;-73
2021/08/08 03:16:09;;;;;;;17.40;10.10;;;15.20;99.90;;;;;;4974090;28;20388;-73
2021/08/08 03:18:37;;;;;;;21.55;11.15;;;15.20;99.90;;;;;;4974096;28;20089;-73
2021/08/08 03:21:06;;;;;;;16.52;10.15;;;15.20;99.90;;;;;;4973976;28;20141;-72
2021/08/08 03:23:34;;;;;;;19.13;12.25;;;15.20;99.90;;;;;;4972378;28;20023;-73
2021/08/08 03:26:02;;;;;;;18.83;10.23;;;15.20;99.90;;;;;;4972624;28;20399;-73
2021/08/08 03:28:30;;;;;;;19.13;10.02;;;15.00;99.90;;;;;;4972780;28;20026;-72
2021/08/08 03:30:57;;;;;;;18.02;11.38;;;14.90;99.90;;;;;;4972631;28;20105;-72
2021/08/08 03:33:25;;;;;;;17.67;12.27;;;14.90;99.90;;;;;;4973975;28;20027;-72
2021/08/08 03:35:52;;;;;;;16.15;10.93;;;14.90;99.90;;;;;;4974115;28;20105;-72
2021/08/08 03:38:19;;;;;;;15.60;10.27;;;15.00;99.90;;;;;;4974054;28;20019;-73
2021/08/08 03:40:46;;;;;;;18.50;9.48;;;15.20;99.90;;;;;;4972734;28;20130;-76
2021/08/08 03:43:14;;;;;;;22.45;11.38;;;15.20;99.90;;;;;;4974101;28;20142;-74
2021/08/08 03:45:41;;;;;;;23.48;11.10;;;15.20;99.90;;;;;;4973844;28;20026;-76
2021/08/08 03:48:08;;;;;;;15.93;9.20;;;15.20;99.90;;;;;;4972555;28;20026;-74
2021/08/08 03:50:39;;;;;;;21.70;11.27;;;15.20;99.90;;;;;;4974044;28;20023;-73
2021/08/08 03:53:07;;;;;;;18.50;10.32;;;15.30;99.90;;;;;;4973981;28;20018;-75
2021/08/08 03:55:34;;;;;;;14.68;9.93;;;15.30;99.90;;;;;;4973969;28;20075;-75
2021/08/08 03:58:02;;;;;;;19.13;9.20;;;15.30;99.90;;;;;;4973898;28;20023;-74
2021/08/08 04:00:29;;;;;;;16.10;8.85;;;15.20;99.90;;;;;;4972753;28;20113;-73
2021/08/08 04:02:58;;;;;;;17.85;8.90;;;15.10;99.90;;;;;;4974013;28;20086;-73
2021/08/08 04:05:25;;;;;;;16.05;8.95;;;15.00;99.90;;;;;;4972733;28;20089;-74
2021/08/08 04:07:52;;;;;;;16.70;9.00;;;14.90;99.90;;;;;;4972718;28;20023;-74
2021/08/08 04:10:20;;;;;;;18.27;10.05;;;14.80;99.90;;;;;;4973949;28;20027;-74
2021/08/08 04:12:47;;;;;;;22.58;10.32;;;14.80;99.90;;;;;;4972187;28;20583;-74
2021/08/08 04:15:14;;;;;;;16.23;9.55;;;14.70;99.90;;;;;;4972663;28;20022;-73
2021/08/08 04:17:41;;;;;;;24.17;10.85;;;14.70;99.90;;;;;;4973856;28;20399;-74
2021/08/08 04:20:09;;;;;;;20.65;10.20;;;14.70;99.90;;;;;;4974321;28;20506;-73
2021/08/08 04:22:37;;;;;;;16.25;10.98;;;14.70;99.90;;;;;;4973758;28;20026;-72
2021/08/08 04:25:05;;;;;;;16.52;8.70;;;14.80;99.90;;;;;;4973674;28;20124;-73
2021/08/08 04:27:32;;;;;;;16.65;10.02;;;14.60;99.90;;;;;;4974036;28;20161;-73
2021/08/08 04:29:59;;;;;;;17.00;10.88;;;14.50;99.90;;;;;;4973801;28;20468;-73
2021/08/08 04:32:27;;;;;;;14.50;9.70;;;14.40;99.90;;;;;;4973739;28;20083;-73
2021/08/08 04:34:54;;;;;;;17.77;11.43;;;14.30;99.90;;;;;;4972113;28;20028;-74
2021/08/08 04:37:21;;;;;;;22.92;11.25;;;14.20;99.90;;;;;;4976233;28;20031;-71
2021/08/08 04:39:49;;;;;;;14.43;10.45;;;14.10;99.90;;;;;;4976966;28;20396;-72
2021/08/08 04:42:17;;;;;;;15.30;10.40;;;14.00;99.90;;;;;;4975570;28;20035;-71
2021/08/08 04:44:44;;;;;;;17.05;10.75;;;13.90;99.90;;;;;;4976801;28;20030;-73
2021/08/08 04:47:12;;;;;;;16.00;10.13;;;13.80;99.90;;;;;;4976705;28;20203;-72
2021/08/08 04:49:40;;;;;;;18.13;10.75;;;13.80;99.90;;;;;;4976862;28;20026;-74
2021/08/08 04:52:08;;;;;;;16.77;10.10;;;13.80;99.90;;;;;;4976153;28;20057;-74
2021/08/08 04:54:35;;;;;;;20.52;11.68;;;13.90;99.90;;;;;;4976945;28;20023;-74
2021/08/08 04:57:03;;;;;;;15.23;10.18;;;14.00;99.90;;;;;;4976752;28;20069;-74
2021/08/08 04:59:30;;;;;;;22.17;11.18;;;13.90;99.90;;;;;;4976714;28;20034;-74
2021/08/08 05:01:58;;;;;;;14.85;10.40;;;14.00;99.90;;;;;;4975290;28;20039;-75
2021/08/08 05:04:25;;;;;;;18.40;9.75;;;13.90;99.90;;;;;;4974906;28;20443;-74
2021/08/08 05:06:52;;;;;;;20.38;9.93;;;14.00;99.90;;;;;;4976426;28;20435;-74
2021/08/08 05:09:20;;;;;;;17.27;11.00;;;14.00;99.90;;;;;;4976469;28;20507;-73
2021/08/08 05:11:47;;;;;;;18.20;10.60;;;13.90;99.90;;;;;;4976274;28;20439;-75
2021/08/08 05:14:14;;;;;;;12.98;9.45;;;13.70;99.90;;;;;;4975022;28;20034;-74
2021/08/08 05:16:42;;;;;;;19.95;10.80;;;13.70;99.90;;;;;;4976490;28;20058;-72
2021/08/08 05:19:09;;;;;;;13.68;9.57;;;13.80;99.90;;;;;;4974927;28;20023;-73
2021/08/08 05:21:37;;;;;;;16.17;10.45;;;13.80;99.90;;;;;;4976445;28;20105;-73
2021/08/08 05:24:04;;;;;;;14.20;9.70;;;13.80;99.90;;;;;;4974673;28;20368;-72
2021/08/08 05:26:32;;;;;;;16.88;10.20;;;13.70;99.90;;;;;;4976201;28;20476;-72
2021/08/08 05:28:59;;;;;;;16.23;9.98;;;13.70;99.90;;;;;;4976100;28;20019;-71
2021/08/08 05:31:26;;;;;;;19.70;11.20;;;13.70;99.90;;;;;;4975205;28;20489;-76
2021/08/08 05:33:54;;;;;;;12.27;9.57;;;13.70;99.90;;;;;;4975759;28;20027;-75
2021/08/08 05:36:21;;;;;;;19.02;10.23;;;13.70;99.90;;;;;;4975204;28;20480;-75
2021/08/08 05:38:48;;;;;;;14.82;9.00;;;13.70;99.90;;;;;;4976290;28;20029;-75
2021/08/08 05:41:15;;;;;;;14.95;8.85;;;13.70;99.90;;;;;;4974654;28;20027;-75
2021/08/08 05:43:43;;;;;;;14.73;9.52;;;13.70;99.90;;;;;;4976650;28;20077;-76
2021/08/08 05:46:10;;;;;;;13.13;8.95;;;13.70;99.90;;;;;;4976481;28;20558;-74
2021/08/08 05:48:38;;;;;;;17.50;9.90;;;13.70;99.90;;;;;;4976117;28;20028;-74
2021/08/08 05:51:05;;;;;;;15.32;8.80;;;13.70;99.90;;;;;;4976285;28;20015;-75
2021/08/08 05:53:32;;;;;;;17.33;9.98;;;13.80;99.90;;;;;;4976449;28;20035;-79
2021/08/08 05:56:00;;;;;;;13.25;9.30;;;13.80;99.90;;;;;;4976415;28;20034;-77
2021/08/08 05:58:27;;;;;;;14.30;9.63;;;13.80;99.90;;;;;;4975213;28;20093;-76
2021/08/08 06:00:55;;;;;;;18.85;10.23;;;13.90;99.90;;;;;;4975113;28;20070;-76
2021/08/08 06:03:22;;;;;;;16.95;9.82;;;13.90;99.90;;;;;;4975779;28;20114;-73
2021/08/08 06:05:49;;;;;;;15.82;9.30;;;13.90;99.90;;;;;;4974394;28;20553;-74
2021/08/08 06:08:17;;;;;;;19.40;10.30;;;13.90;99.90;;;;;;4974263;28;20384;-73
2021/08/08 06:10:44;;;;;;;17.38;9.52;;;14.00;99.90;;;;;;4974631;28;20500;-74
2021/08/08 06:13:11;;;;;;;13.80;9.82;;;13.90;99.90;;;;;;4975889;28;20527;-78
2021/08/08 06:15:39;;;;;;;14.45;10.68;;;13.80;99.90;;;;;;4975882;28;20098;-73
2021/08/08 06:18:06;;;;;;;17.35;10.15;;;13.90;99.90;;;;;;4975717;28;20051;-74
2021/08/08 06:20:33;;;;;;;16.38;9.40;;;14.00;99.90;;;;;;4975861;28;20479;-76
2021/08/08 06:23:01;;;;;;;17.00;10.02;;;14.00;99.90;;;;;;4975169;28;20050;-75
2021/08/08 06:25:31;;;;;;;15.57;9.18;;;14.00;99.90;;;;;;4975148;28;20035;-76
2021/08/08 06:27:58;;;;;;;14.45;9.43;;;14.10;99.90;;;;;;4975554;28;20026;-73
2021/08/08 06:30:25;;;;;;;19.90;10.73;;;14.00;99.90;;;;;;4973474;28;20431;-74
2021/08/08 06:32:53;;;;;;;13.20;7.90;;;14.00;99.90;;;;;;4973573;28;20027;-76
2021/08/08 06:35:20;;;;;;;13.65;9.35;;;13.90;99.90;;;;;;4974687;28;20542;-73
2021/08/08 06:37:47;;;;;;;14.90;8.50;;;13.90;99.90;;;;;;4973595;28;20031;-72
2021/08/08 06:40:15;;;;;;;19.95;8.55;;;13.90;99.90;;;;;;4975087;28;20037;-71
2021/08/08 06:42:43;;;;;;;18.10;8.75;;;13.80;99.90;;;;;;4975060;28;20126;-71
2021/08/08 06:45:11;;;;;;;11.45;8.90;;;13.80;99.90;;;;;;4974672;28;20077;-71
2021/08/08 06:47:38;;;;;;;15.68;9.32;;;13.80;99.90;;;;;;4974763;28;20468;-75
2021/08/08 06:50:06;;;;;;;17.70;8.82;;;13.70;99.90;;;;;;4974658;28;20022;-72
2021/08/08 06:52:33;;;;;;;15.27;8.98;;;13.70;99.90;;;;;;4973305;28;20049;-73
2021/08/08 06:55:00;;;;;;;17.10;9.77;;;13.60;99.90;;;;;;4973078;28;20026;-72
2021/08/08 06:57:29;;;;;;;15.23;9.77;;;13.50;99.90;;;;;;4974559;28;20069;-73
2021/08/08 06:59:56;;;;;;;13.75;9.73;;;13.40;99.90;;;;;;4973826;28;20039;-77
2021/08/08 07:02:24;;;;;;;12.90;9.25;;;13.30;99.90;;;;;;4974434;28;20030;-72
2021/08/08 07:04:51;;;;;;;13.27;9.55;;;13.20;99.90;;;;;;4974215;28;20049;-74
2021/08/08 07:07:18;;;;;;;16.00;10.10;;;13.20;99.90;;;;;;4974275;28;20019;-74
2021/08/08 07:09:45;;;;;;;16.98;9.18;;;13.10;99.90;;;;;;4972847;28;20126;-72
2021/08/08 07:12:13;;;;;;;15.32;10.48;;;13.00;99.90;;;;;;4973918;28;20047;-72
2021/08/08 07:14:40;;;;;;;12.70;9.85;;;13.00;99.90;;;;;;4972798;28;20030;-72
2021/08/08 07:17:07;;;;;;;21.50;10.73;;;12.90;99.90;;;;;;4974240;28;20046;-72
2021/08/08 07:19:35;;;;;;;16.85;10.90;;;12.80;99.90;;;;;;4974226;28;20023;-73
2021/08/08 07:22:02;;;;;;;21.70;9.95;;;12.80;99.90;;;;;;4973054;28;20070;-75
2021/08/08 07:24:30;;;;;;;17.50;10.90;;;12.80;99.90;;;;;;4974082;28;20058;-73
2021/08/08 07:26:57;;;;;;;21.10;10.77;;;12.70;99.90;;;;;;4974222;28;20034;-74
2021/08/08 07:29:25;;;;;;;19.27;10.23;;;12.70;99.90;;;;;;4972967;28;20026;-75
2021/08/08 07:31:53;;;;;;;16.58;10.45;;;12.70;99.90;;;;;;4974543;28;20019;-74
2021/08/08 07:34:21;;;;;;;14.75;9.77;;;12.70;99.90;;;;;;4972922;28;20439;-75
2021/08/08 07:36:49;;;;;;;18.63;11.18;;;12.70;99.90;;;;;;4972561;28;20031;-74
2021/08/08 07:39:17;;;;;;;17.40;11.07;;;12.70;99.90;;;;;;4972913;28;20081;-75
2021/08/08 07:41:44;;;;;;;24.23;11.40;;;12.70;99.90;;;;;;4974014;28;20019;-75
2021/08/08 07:44:11;;;;;;;16.15;10.23;;;12.70;99.90;;;;;;4974122;28;20467;-75
2021/08/08 07:46:39;;;;;;;16.02;9.77;;;12.70;99.90;;;;;;4973005;28;20034;-75
2021/08/08 07:49:07;;;;;;;15.18;11.27;;;12.60;99.90;;;;;;4974095;28;20484;-74
2021/08/08 07:51:34;;;;;;;18.55;10.90;;;12.60;99.90;;;;;;4973175;28;20037;-75
2021/08/08 07:54:01;;;;;;;18.45;12.60;;;12.70;99.90;;;;;;4974213;28;20045;-75
2021/08/08 07:56:29;;;;;;;15.55;11.55;;;12.60;99.90;;;;;;4973941;28;20554;-76
2021/08/08 07:58:56;;;;;;;38.63;12.95;;;12.70;99.90;;;;;;4974173;28;20263;-75
2021/08/08 08:01:24;;;;;;;19.90;11.57;;;12.70;99.90;;;;;;4974109;28;20053;-74
2021/08/08 08:03:51;;;;;;;15.70;11.30;;;12.70;99.90;;;;;;4972227;28;20480;-72
2021/08/08 08:06:18;;;;;;;19.70;11.80;;;12.70;99.90;;;;;;4973790;28;20535;-73
2021/08/08 08:08:45;;;;;;;16.77;10.52;;;12.70;99.90;;;;;;4973766;28;20054;-73
2021/08/08 08:11:13;;;;;;;20.48;11.98;;;12.70;99.90;;;;;;4976311;28;20483;-73
2021/08/08 08:13:40;;;;;;;13.35;11.38;;;12.70;99.90;;;;;;4977505;28;20022;-73
2021/08/08 08:16:08;;;;;;;20.90;12.00;;;12.70;99.90;;;;;;4976226;28;20034;-72
2021/08/08 08:18:35;;;;;;;14.20;11.40;;;12.70;99.90;;;;;;4977501;28;20027;-73
2021/08/08 08:21:03;;;;;;;17.08;11.45;;;12.70;99.90;;;;;;4977388;28;20054;-73
2021/08/08 08:23:30;;;;;;;14.10;12.50;;;12.70;99.90;;;;;;4977154;28;20423;-73
2021/08/08 08:25:57;;;;;;;18.50;11.73;;;12.70;99.90;;;;;;4977033;28;20081;-73
2021/08/08 08:28:29;;;;;;;16.20;11.95;;;12.70;99.90;;;;;;4977173;28;20039;-72
2021/08/08 08:30:57;;;;;;;16.33;11.80;;;12.60;99.90;;;;;;4975850;28;20023;-73
2021/08/08 08:33:26;;;;;;;14.82;11.88;;;12.60;99.90;;;;;;4977270;28;20023;-73
2021/08/08 08:35:53;;;;;;;16.65;12.00;;;12.60;99.90;;;;;;4975745;28;20031;-73
2021/08/08 08:38:21;;;;;;;15.27;12.65;;;12.60;99.90;;;;;;4977078;28;20089;-73
2021/08/08 08:40:48;;;;;;;26.40;13.23;;;12.50;99.90;;;;;;4977051;28;20027;-72
2021/08/08 08:43:16;;;;;;;18.67;13.23;;;12.40;99.90;;;;;;4976856;28;20019;-73
2021/08/08 08:45:45;;;;;;;19.52;13.48;;;12.40;99.90;;;;;;4975574;28;20089;-73
2021/08/08 08:48:17;;;;;;;16.83;12.90;;;12.30;99.90;;;;;;4977016;28;20023;-73
2021/08/08 08:50:45;;;;;;;18.48;13.00;;;12.30;99.90;;;;;;4975850;28;20169;-72
2021/08/08 08:53:12;;;;;;;19.17;14.10;;;12.20;99.90;;;;;;4975524;28;20023;-73
2021/08/08 08:55:40;;;;;;;19.05;13.27;;;12.20;99.90;;;;;;4975923;28;20483;-72
2021/08/08 08:58:08;;;;;;;21.23;14.50;;;12.20;99.90;;;;;;4976769;28;20037;-72
2021/08/08 09:00:35;;;;;;;17.52;14.98;;;12.10;99.90;;;;;;4975350;28;20377;-72
2021/08/08 09:03:03;;;;;;;23.05;15.90;;;12.10;99.90;;;;;;4976490;28;20085;-73
2021/08/08 09:05:30;;;;;;;19.58;15.02;;;12.10;99.90;;;;;;4976414;28;20111;-74
2021/08/08 09:07:58;;;;;;;23.33;15.15;;;12.00;99.90;;;;;;4976625;28;20070;-73
2021/08/08 09:10:26;;;;;;;20.70;14.98;;;12.00;99.90;;;;;;4976607;28;20049;-73
2021/08/08 09:13:01;;;;;;;20.98;14.75;;;12.00;99.90;;;;;;4976243;28;20522;-73
2021/08/08 09:15:55;;;;;;;18.70;16.63;;;12.10;99.90;;;;;;4976707;28;20503;-73
2021/08/08 09:18:23;;;;;;;19.67;17.08;;;12.10;99.90;;;;;;4973395;28;20046;-73
2021/08/08 09:20:52;;;;;;;19.65;15.77;;;12.10;99.90;;;;;;4976544;28;20202;-73
2021/08/08 09:23:20;;;;;;;18.98;16.30;;;12.20;99.90;;;;;;4975491;28;20052;-73
2021/08/08 09:25:57;;;;;;;16.45;14.52;;;12.20;99.90;;;;;;4975916;28;20377;-73
2021/08/08 09:28:32;;;;;;;19.52;15.60;;;12.20;99.90;;;;;;4976154;28;20093;-73
2021/08/08 09:31:00;;;;;;;19.70;14.38;;;12.20;99.90;;;;;;4975918;28;20384;-72
2021/08/08 09:33:28;;;;;;;17.13;15.27;;;12.20;99.90;;;;;;4975951;28;20026;-73
2021/08/08 09:35:56;;;;;;;16.90;15.13;;;12.20;99.90;;;;;;4974499;28;20027;-72
2021/08/08 09:38:24;;;;;;;14.77;12.98;;;12.20;99.90;;;;;;4974498;28;20404;-72
2021/08/08 09:41:01;;;;;;;21.23;15.18;;;12.20;99.90;;;;;;4974694;28;20080;-72
2021/08/08 09:43:30;;;;;;;17.95;13.88;;;12.20;99.90;;;;;;4976224;28;20050;-73
2021/08/08 09:45:57;;;;;;;14.02;12.48;;;12.20;99.90;;;;;;4975657;28;20030;-72
2021/08/08 09:48:38;;;;;;;16.58;13.55;;;12.20;99.90;;;;;;4974320;28;20027;-72
2021/08/08 09:51:11;;;;;;;19.48;14.25;;;12.20;99.90;;;;;;4974562;28;20065;-73
2021/08/08 09:53:38;;;;;;;21.38;13.93;;;12.20;99.90;;;;;;4974465;28;20085;-72
2021/08/08 09:56:15;;;;;;;20.90;14.77;;;12.20;99.90;;;;;;4975683;28;20042;-71
2021/08/08 09:58:47;;;;;;;19.40;14.23;;;12.20;99.90;;;;;;4976242;28;20026;-72
2021/08/08 10:01:14;;;;;;;20.63;13.30;;;12.20;99.90;;;;;;4976347;28;20025;-74
2021/08/08 10:03:42;;;;;;;18.88;13.90;;;12.10;99.90;;;;;;4974655;28;20400;-74
2021/08/08 10:06:14;;;;;;;16.00;13.93;;;12.30;99.90;;;;;;4974676;28;20027;-73
2021/08/08 10:08:44;;;;;;;22.50;14.30;;;12.20;99.90;;;;;;4974014;28;20030;-74
2021/08/08 10:11:12;;;;;;;19.80;13.93;;;12.20;99.90;;;;;;4973707;28;20033;-73
2021/08/08 10:13:57;;;;;;;17.40;13.45;;;12.20;99.90;;;;;;4975414;28;20031;-75
2021/08/08 10:16:26;;;;;;;19.83;12.48;;;12.20;99.90;;;;;;4974002;28;20103;-74
2021/08/08 10:19:01;;;;;;;18.30;13.07;;;12.20;99.90;;;;;;4973750;28;20050;-75
2021/08/08 10:21:34;;;;;;;17.48;12.80;;;12.20;99.90;;;;;;4975133;28;20101;-75
2021/08/08 10:24:08;;;;;;;17.50;12.07;;;12.20;99.90;;;;;;4973840;28;20034;-71
2021/08/08 10:26:37;;;;;;;19.05;12.43;;;12.20;99.90;;;;;;4973699;28;20074;-70
2021/08/08 10:29:05;;;;;;;14.20;12.70;;;12.30;99.90;;;;;;4975055;28;20027;-71
2021/08/08 10:31:33;;;;;;;15.35;12.85;;;12.20;99.90;;;;;;4973695;28;20031;-73
2021/08/08 10:34:01;;;;;;;17.65;11.73;;;12.20;99.90;;;;;;4972524;28;20054;-73
2021/08/08 10:36:32;;;;;;;17.88;12.52;;;12.20;99.90;;;;;;4974914;28;20443;-71
2021/08/08 10:39:17;;;;;;;17.30;12.82;;;12.20;99.90;;;;;;4974884;28;20089;-74
2021/08/08 10:41:58;;;;;;;15.40;12.82;;;12.20;99.90;;;;;;4974842;28;20054;-74
2021/08/08 10:44:26;;;;;;;14.73;13.20;;;12.20;99.90;;;;;;4973604;28;20034;-73
2021/08/08 10:46:55;;;;;;;18.33;12.13;;;12.30;99.90;;;;;;4974865;28;20440;-73
2021/08/08 10:49:30;;;;;;;16.95;11.60;;;12.20;99.90;;;;;;4973551;28;20073;-72
2021/08/08 10:52:10;;;;;;;13.73;11.98;;;12.30;99.90;;;;;;4973465;28;20030;-74
2021/08/08 10:54:55;;;;;;;18.13;12.35;;;12.30;99.90;;;;;;4974627;28;20035;-74
2021/08/08 10:57:22;;;;;;;14.02;11.73;;;12.30;99.90;;;;;;4973602;28;20117;-73
2021/08/08 10:59:52;;;;;;;13.35;11.98;;;12.20;99.90;;;;;;4974617;28;20027;-74
2021/08/08 11:02:28;;;;;;;16.33;12.30;;;12.20;99.90;;;;;;4974614;28;20451;-73
2021/08/08 11:04:56;;;;;;;15.15;12.57;;;12.20;99.90;;;;;;4974702;28;20026;-73
2021/08/08 11:07:29;;;;;;;13.93;12.10;;;12.20;99.90;;;;;;4973080;28;20027;-73
2021/08/08 11:09:57;;;;;;;17.77;12.45;;;12.20;99.90;;;;;;4974469;28;20026;-73
2021/08/08 11:12:51;;;;;;;15.50;13.25;;;12.10;99.90;;;;;;4972791;28;20046;-73
2021/08/08 11:15:18;;;;;;;19.85;13.00;;;12.10;99.90;;;;;;4971376;28;20041;-74
2021/08/08 11:17:47;;;;;;;19.70;13.40;;;12.10;99.90;;;;;;4974413;28;20022;-73
2021/08/08 11:20:15;;;;;;;18.73;14.23;;;12.10;99.90;;;;;;4974254;28;20057;-74
2021/08/08 11:22:43;;;;;;;19.38;13.20;;;12.10;99.90;;;;;;4972973;28;20035;-73
2021/08/08 11:25:13;;;;;;;18.20;13.48;;;12.10;99.90;;;;;;4974230;28;20031;-74
2021/08/08 11:27:43;;;;;;;17.10;12.40;;;12.10;99.90;;;;;;4974255;28;20019;-74
2021/08/08 11:30:16;;;;;;;13.13;12.02;;;12.10;99.90;;;;;;4974193;28;20062;-73
2021/08/08 11:32:44;;;;;;;16.23;13.10;;;12.10;99.90;;;;;;4972804;28;20023;-74
2021/08/08 11:35:14;;;;;;;20.50;14.45;;;12.10;99.90;;;;;;4972762;28;20026;-74
2021/08/08 11:37:49;;;;;;;17.67;13.40;;;12.10;99.90;;;;;;4972784;28;20030;-74
2021/08/08 11:40:28;;;;;;;16.75;14.75;;;12.10;99.90;;;;;;4972788;28;20117;-73
2021/08/08 11:43:02;;;;;;;17.15;13.68;;;12.10;99.90;;;;;;4972500;28;20033;-73
2021/08/08 11:45:49;;;;;;;22.45;15.00;;;12.10;99.90;;;;;;4975468;28;20492;-73
2021/08/08 11:48:21;;;;;;;19.80;13.90;;;12.10;99.90;;;;;;4976534;28;20045;-72
2021/08/08 11:51:02;;;;;;;20.08;14.68;;;12.10;99.90;;;;;;4977799;28;20436;-72
2021/08/08 11:53:36;;;;;;;16.40;14.63;;;12.10;99.90;;;;;;4976508;28;20499;-72
2021/08/08 11:56:14;;;;;;;16.33;14.35;;;12.10;99.90;;;;;;4976604;28;20126;-72
2021/08/08 11:58:49;;;;;;;17.67;14.98;;;12.10;99.90;;;;;;4977593;28;20092;-73
2021/08/08 12:01:20;;;;;;;23.85;15.38;;;12.10;99.90;;;;;;4977699;28;20027;-73
2021/08/08 12:03:48;;;;;;;19.00;14.35;;;12.10;99.90;;;;;;4976350;28;20487;-74
2021/08/08 12:06:20;;;;;;;19.95;14.13;;;12.10;99.90;;;;;;4977637;28;20060;-73
2021/08/08 12:08:52;;;;;;;16.23;14.50;;;12.10;99.90;;;;;;4976214;28;20026;-74
2021/08/08 12:11:21;;;;;;;18.15;14.18;;;12.10;99.90;;;;;;4977313;28;20072;-73
2021/08/08 12:14:05;;;;;;;16.13;14.00;;;12.10;99.90;;;;;;4977435;28;20472;-74
2021/08/08 12:16:35;;;;;;;20.00;15.00;;;12.10;99.90;;;;;;4977486;28;20110;-74
2021/08/08 12:19:03;;;;;;;16.67;14.07;;;12.10;99.90;;;;;;4975899;28;20045;-73
2021/08/08 12:21:35;;;;;;;18.52;15.07;;;12.10;99.90;;;;;;4977335;28;20364;-73
2021/08/08 12:24:11;;;;;;;16.30;14.15;;;12.10;99.90;;;;;;4977196;28;20482;-73
2021/08/08 12:26:48;;;;;;;18.25;13.88;;;12.00;99.90;;;;;;4977376;28;20027;-73
2021/08/08 12:29:16;;;;;;;15.93;14.35;;;12.00;99.90;;;;;;4977369;28;20365;-74
2021/08/08 12:31:43;;;;;;;19.17;14.23;;;12.10;99.90;;;;;;4977477;28;20361;-73
2021/08/08 12:34:11;;;;;;;19.38;14.80;;;12.10;99.90;;;;;;4977594;28;20027;-74
2021/08/08 12:36:40;;;;;;;16.50;14.05;;;12.10;99.90;;;;;;4975885;28;20495;-72